BEG airport status
LYBE 231430Z 09006KT 040V130 CAVOK 22/12 Q1010 NOSIG

Izdvajamo

Helimaster i Direktorat organizuju seminar o bezbednosti letenja

Helimaster i Direktorat organizuju seminar o bezbednosti letenja

Kompanija i ATO Helimaster i Direktorat Civilnog Vazduhoplovstva organizuju seminar posvećen bezbednosti letenja u helikopterskim operacijama. Jednodnevno okupljanje domaćih i

0 komentara Pročitaj više
Novi izgled aviona kompanije Wizz Air

Novi izgled aviona kompanije Wizz Air

Jedanaestu godinu rada kompanija Wizz Air obeležila je vanrednim letom Budimpeša-Varšava. To je bila prilika da se najave dalji planovi i

1 komentar Pročitaj više
Centar za istraživanje udesa objavio preliminarni izveštaj udesa Cesne 310 kod Ečke

Centar za istraživanje udesa objavio preliminarni izveštaj udesa Cesne 310 kod Ečke

Centar za istraživanje udesa i ozbiljnih nezgoda objavio je 30. marta informaciju o udesu aviona Cesna 310 škole letenja Pegaz.

0 komentara Pročitaj više
DCV nije dobio zahtev od Raškog upravnog okruga za izdavanje dozvole aerodromu „Morava“

DCV nije dobio zahtev od Raškog upravnog okruga za izdavanje dozvole aerodromu „Morava“

Direktorat civilnog vazduhoplovstva negirao je navode o poseti Lađevcima i proceni stanja u kome se nalazi aerodrom „Morava“. Kao što

2 komentara Pročitaj više